Time;durP1;ratioP1;P1;durP2;ratioP2;P2;SDS_P1;SDS_P2;PMS_P1;PMS_P2;Temp;Humidity;BMP_temperature;BMP_pressure;BME280_temperature;BME280_humidity;BME280_pressure;Samples;Min_cycle;Max_cycle;Signal;HPM_P1;HPM_P2
2021/10/17 00:01:29;;;;;;;11.30;8.37;;;8.90;99.90;;;;;;5054494;28;20404;-67
2021/10/17 00:03:55;;;;;;;12.53;8.57;;;8.90;99.90;;;;;;5054899;28;20431;-67
2021/10/17 00:06:27;;;;;;;12.50;10.20;;;8.90;99.90;;;;;;5052867;28;20492;-67
2021/10/17 00:08:53;;;;;;;15.30;9.33;;;8.90;99.90;;;;;;5054920;28;20174;-67
2021/10/17 00:11:19;;;;;;;11.17;9.77;;;8.80;99.90;;;;;;5054072;28;20566;-70
2021/10/17 00:13:45;;;;;;;9.90;8.90;;;8.80;99.90;;;;;;5054936;28;20499;-67
2021/10/17 00:16:11;;;;;;;10.70;9.70;;;8.80;99.90;;;;;;5053896;28;20408;-67
2021/10/17 00:18:37;;;;;;;10.97;9.17;;;8.70;99.90;;;;;;5054204;28;20607;-67
2021/10/17 00:21:03;;;;;;;10.27;8.77;;;8.70;99.90;;;;;;5055055;28;20947;-67
2021/10/17 00:23:29;;;;;;;11.20;10.00;;;8.70;99.90;;;;;;5052920;28;20170;-67
2021/10/17 00:25:55;;;;;;;11.87;8.90;;;8.80;99.90;;;;;;5053410;28;20549;-67
2021/10/17 00:28:20;;;;;;;11.37;8.90;;;8.80;99.90;;;;;;5053720;28;20416;-67
2021/10/17 00:30:46;;;;;;;10.07;9.07;;;8.70;99.90;;;;;;5052695;28;20281;-67
2021/10/17 00:33:12;;;;;;;9.93;8.93;;;8.80;99.90;;;;;;5054742;28;20256;-68
2021/10/17 00:35:38;;;;;;;13.03;9.70;;;8.80;99.90;;;;;;5053915;28;20360;-67
2021/10/17 00:38:04;;;;;;;13.13;9.40;;;8.80;99.90;;;;;;5054419;28;20218;-67
2021/10/17 00:40:30;;;;;;;12.03;9.80;;;8.80;99.90;;;;;;5054094;28;20416;-67
2021/10/17 00:42:56;;;;;;;13.30;9.90;;;8.80;99.90;;;;;;5054528;28;20228;-67
2021/10/17 00:45:27;;;;;;;14.20;9.60;;;8.80;99.90;;;;;;5053540;28;20517;-68
2021/10/17 00:47:58;;;;;;;10.23;8.80;;;8.90;99.90;;;;;;5054993;28;20742;-67
2021/10/17 00:50:25;;;;;;;12.50;9.50;;;8.80;99.90;;;;;;5053630;28;20455;-67
2021/10/17 00:52:50;;;;;;;13.67;9.30;;;8.80;99.90;;;;;;5053781;28;20511;-67
2021/10/17 00:55:18;;;;;;;11.73;10.03;;;8.90;99.90;;;;;;5054312;28;20499;-67
2021/10/17 00:57:45;;;;;;;12.27;10.30;;;8.90;99.90;;;;;;5053835;28;20408;-67
2021/10/17 01:00:13;;;;;;;12.97;10.23;;;8.90;99.90;;;;;;5054091;28;20507;-67
2021/10/17 01:02:39;;;;;;;11.23;10.03;;;8.90;99.90;;;;;;5053131;28;20502;-67
2021/10/17 01:05:12;;;;;;;11.87;10.33;;;9.00;99.90;;;;;;5054039;28;20762;-66
2021/10/17 01:07:38;;;;;;;13.27;10.30;;;9.00;99.90;;;;;;5053273;28;20404;-67
2021/10/17 01:10:04;;;;;;;11.43;10.30;;;9.00;99.90;;;;;;5054056;28;20436;-67
2021/10/17 01:12:30;;;;;;;12.67;10.10;;;9.00;99.90;;;;;;5053164;28;20749;-67
2021/10/17 01:14:55;;;;;;;11.67;10.43;;;9.00;99.90;;;;;;5053796;28;20442;-67
2021/10/17 01:17:21;;;;;;;10.53;9.40;;;9.00;99.90;;;;;;5051882;28;20209;-72
2021/10/17 01:19:47;;;;;;;10.47;9.37;;;9.00;99.90;;;;;;5053376;28;20481;-67
2021/10/17 01:22:14;;;;;;;12.40;10.50;;;8.90;99.90;;;;;;5053593;28;20397;-67
2021/10/17 01:24:40;;;;;;;9.77;8.77;;;9.00;99.90;;;;;;5052993;28;20178;-66
2021/10/17 01:27:06;;;;;;;11.70;9.60;;;8.90;99.90;;;;;;5053632;28;20451;-67
2021/10/17 01:29:31;;;;;;;10.80;9.70;;;9.00;99.90;;;;;;5052605;28;20228;-67
2021/10/17 01:31:57;;;;;;;13.93;10.10;;;8.90;99.90;;;;;;5052394;28;20695;-67
2021/10/17 01:34:26;;;;;;;11.10;9.30;;;8.90;99.90;;;;;;5052904;28;20257;-72
2021/10/17 01:36:52;;;;;;;9.77;8.60;;;8.90;99.90;;;;;;5053432;28;20189;-67
2021/10/17 01:39:21;;;;;;;11.50;8.90;;;8.90;99.90;;;;;;5053024;28;20412;-67
2021/10/17 01:41:47;;;;;;;11.00;9.87;;;8.90;99.90;;;;;;5052939;28;20417;-67
2021/10/17 01:44:25;;;;;;;15.60;11.20;;;8.90;99.90;;;;;;5051850;28;20558;-67
2021/10/17 01:46:52;;;;;;;12.30;9.47;;;8.80;99.90;;;;;;5053356;28;20467;-67
2021/10/17 01:49:18;;;;;;;10.67;8.90;;;8.80;99.90;;;;;;5051982;28;20425;-67
2021/10/17 01:51:44;;;;;;;11.03;9.83;;;8.80;99.90;;;;;;5052378;28;20408;-67
2021/10/17 01:54:10;;;;;;;11.40;9.30;;;8.70;99.90;;;;;;5053144;28;20408;-67
2021/10/17 01:56:38;;;;;;;16.17;9.03;;;8.70;99.90;;;;;;5052343;28;20405;-67
2021/10/17 01:59:04;;;;;;;10.57;9.47;;;8.70;99.90;;;;;;5053119;28;20169;-67
2021/10/17 02:01:29;;;;;;;10.67;8.73;;;8.70;99.90;;;;;;5051882;28;20421;-67
2021/10/17 02:03:58;;;;;;;12.10;9.43;;;8.70;99.90;;;;;;5052989;28;20169;-67
2021/10/17 02:06:24;;;;;;;9.70;8.57;;;8.70;99.90;;;;;;5052436;28;20276;-71
2021/10/17 02:08:49;;;;;;;10.87;8.90;;;8.60;99.90;;;;;;5051405;28;20554;-67
2021/10/17 02:11:15;;;;;;;11.37;9.03;;;8.60;99.90;;;;;;5052876;28;20218;-67
2021/10/17 02:13:41;;;;;;;13.50;9.80;;;8.60;99.90;;;;;;5050426;28;20169;-67
2021/10/17 02:16:06;;;;;;;11.40;9.27;;;8.60;99.90;;;;;;5052744;28;20319;-67
2021/10/17 02:18:32;;;;;;;10.10;9.00;;;8.60;99.90;;;;;;5050329;28;20610;-67
2021/10/17 02:20:59;;;;;;;12.67;9.07;;;8.70;99.90;;;;;;5052737;28;20231;-67
2021/10/17 02:23:25;;;;;;;13.30;10.13;;;8.60;99.90;;;;;;5052349;28;20415;-71
2021/10/17 02:25:51;;;;;;;12.23;9.37;;;8.50;99.90;;;;;;5052043;28;20930;-67
2021/10/17 02:28:16;;;;;;;11.47;9.20;;;8.60;99.90;;;;;;5052698;28;20420;-67
2021/10/17 02:30:42;;;;;;;9.90;8.57;;;8.50;99.90;;;;;;5051754;28;20182;-67
2021/10/17 02:33:08;;;;;;;9.67;8.77;;;8.50;99.90;;;;;;5051292;28;20181;-67
2021/10/17 02:35:33;;;;;;;9.63;8.30;;;8.50;99.90;;;;;;5051684;28;20235;-67
2021/10/17 02:37:59;;;;;;;10.53;8.70;;;8.50;99.90;;;;;;5051018;28;20621;-67
2021/10/17 02:40:25;;;;;;;11.07;8.97;;;8.40;99.90;;;;;;5051798;28;20220;-70
2021/10/17 02:42:51;;;;;;;11.23;8.33;;;8.50;99.90;;;;;;5052005;28;20170;-67
2021/10/17 02:45:16;;;;;;;9.40;8.03;;;8.40;99.90;;;;;;5052334;28;20603;-67
2021/10/17 02:47:42;;;;;;;11.57;8.53;;;8.40;99.90;;;;;;5051486;28;20427;-67
2021/10/17 02:50:08;;;;;;;14.90;10.17;;;8.40;99.90;;;;;;5052352;28;20747;-67
2021/10/17 02:52:34;;;;;;;10.20;9.13;;;8.30;99.90;;;;;;5050991;28;20170;-67
2021/10/17 02:55:00;;;;;;;10.93;9.17;;;8.30;99.90;;;;;;5052296;28;20410;-67
2021/10/17 02:57:26;;;;;;;10.57;8.43;;;8.40;99.90;;;;;;5051845;28;20190;-71
2021/10/17 02:59:52;;;;;;;12.33;8.87;;;8.30;99.90;;;;;;5051736;28;20443;-66
2021/10/17 03:02:17;;;;;;;10.77;7.97;;;8.20;99.90;;;;;;5052399;28;20187;-66
2021/10/17 03:04:43;;;;;;;9.33;8.30;;;8.20;99.90;;;;;;5051044;28;20211;-66
2021/10/17 03:07:09;;;;;;;9.40;8.20;;;8.20;99.90;;;;;;5051940;28;20644;-66
2021/10/17 03:09:34;;;;;;;10.23;7.10;;;8.20;99.90;;;;;;5051042;28;20268;-66
2021/10/17 03:12:00;;;;;;;8.93;8.03;;;8.20;99.90;;;;;;5050977;28;20170;-66
2021/10/17 03:14:26;;;;;;;9.50;7.90;;;8.20;99.90;;;;;;5051881;28;20173;-71
2021/10/17 03:16:52;;;;;;;9.60;8.57;;;8.30;99.90;;;;;;5051472;28;20181;-66
2021/10/17 03:19:17;;;;;;;11.93;7.37;;;8.20;99.90;;;;;;5034154;28;20185;-66
2021/10/17 03:21:46;;;;;;;10.43;8.30;;;8.20;99.90;;;;;;5051188;28;20173;-66
2021/10/17 03:24:12;;;;;;;8.80;7.20;;;8.20;99.90;;;;;;5051929;28;20173;-66
2021/10/17 03:26:38;;;;;;;12.97;7.67;;;8.30;99.90;;;;;;5050805;28;20513;-66
2021/10/17 03:29:03;;;;;;;8.87;7.00;;;8.30;99.90;;;;;;5051641;28;20184;-66
2021/10/17 03:31:32;;;;;;;10.00;7.80;;;8.20;99.90;;;;;;5051109;28;20192;-72
2021/10/17 03:33:58;;;;;;;7.73;6.80;;;8.30;99.90;;;;;;5051810;28;20269;-66
2021/10/17 03:36:24;;;;;;;11.47;8.13;;;8.20;99.90;;;;;;5051750;28;20491;-66
2021/10/17 03:38:50;;;;;;;10.57;7.80;;;8.30;99.90;;;;;;5050471;28;20583;-66
2021/10/17 03:41:15;;;;;;;13.03;7.70;;;8.20;99.90;;;;;;5051783;28;20182;-66
2021/10/17 03:43:41;;;;;;;9.00;7.70;;;8.20;99.90;;;;;;5050657;28;20182;-67
2021/10/17 03:46:07;;;;;;;9.57;7.67;;;8.20;99.90;;;;;;5051240;28;20256;-66
2021/10/17 03:48:34;;;;;;;11.57;7.50;;;8.30;99.90;;;;;;5050915;28;20216;-67
2021/10/17 03:50:59;;;;;;;8.50;7.60;;;8.30;99.90;;;;;;5050403;28;20193;-66
2021/10/17 03:53:25;;;;;;;8.37;7.33;;;8.30;99.90;;;;;;5050172;28;20420;-66
2021/10/17 03:55:51;;;;;;;11.53;7.50;;;8.30;99.90;;;;;;5050923;28;20875;-66
2021/10/17 03:58:17;;;;;;;10.27;7.97;;;8.30;99.90;;;;;;5051624;28;20181;-66
2021/10/17 04:00:42;;;;;;;7.50;6.80;;;8.30;99.90;;;;;;5050687;28;20174;-66
2021/10/17 04:03:08;;;;;;;9.83;7.17;;;8.30;99.90;;;;;;5051724;28;20185;-66
2021/10/17 04:05:34;;;;;;;9.17;7.57;;;8.40;99.90;;;;;;5052290;28;20205;-66
2021/10/17 04:08:00;;;;;;;12.23;7.63;;;8.40;99.90;;;;;;5054968;28;20182;-66
2021/10/17 04:10:25;;;;;;;8.83;7.87;;;8.40;99.90;;;;;;5055285;28;20181;-66
2021/10/17 04:12:51;;;;;;;9.50;7.90;;;8.40;99.90;;;;;;5054060;28;20319;-66
2021/10/17 04:15:17;;;;;;;10.20;8.40;;;8.50;99.90;;;;;;5054756;28;20177;-66
2021/10/17 04:17:42;;;;;;;11.00;8.43;;;8.40;99.90;;;;;;5054161;28;20186;-66
2021/10/17 04:20:09;;;;;;;8.30;7.33;;;8.40;99.90;;;;;;5053793;28;20173;-66
2021/10/17 04:22:35;;;;;;;8.40;7.60;;;8.40;99.90;;;;;;5054099;28;20177;-68
2021/10/17 04:25:01;;;;;;;9.03;8.13;;;8.40;99.90;;;;;;5054875;28;20474;-66
2021/10/17 04:27:27;;;;;;;7.97;7.13;;;8.50;99.90;;;;;;5054505;28;20452;-66
2021/10/17 04:29:52;;;;;;;11.03;7.93;;;8.60;99.90;;;;;;5053984;28;20173;-66
2021/10/17 04:32:18;;;;;;;10.17;7.23;;;8.60;99.90;;;;;;5054718;28;20184;-66
2021/10/17 04:34:44;;;;;;;8.33;7.20;;;8.50;99.90;;;;;;5053908;28;20182;-66
2021/10/17 04:37:10;;;;;;;11.73;8.40;;;8.50;99.90;;;;;;5054711;28;20530;-66
2021/10/17 04:39:37;;;;;;;10.10;7.87;;;8.40;99.90;;;;;;5053798;28;20174;-67
2021/10/17 04:42:03;;;;;;;11.13;8.17;;;8.30;99.90;;;;;;5054608;28;20409;-66
2021/10/17 04:44:29;;;;;;;10.90;7.73;;;8.30;99.90;;;;;;5054355;28;20955;-66
2021/10/17 04:46:55;;;;;;;9.13;7.73;;;8.30;99.90;;;;;;5053635;28;20456;-66
2021/10/17 04:49:25;;;;;;;8.43;7.57;;;8.40;99.90;;;;;;5053830;28;20811;-66
2021/10/17 04:51:54;;;;;;;9.30;8.10;;;8.40;99.90;;;;;;5052420;28;20205;-66
2021/10/17 04:54:21;;;;;;;8.57;7.20;;;8.30;99.90;;;;;;5054316;28;20453;-66
2021/10/17 04:56:46;;;;;;;12.33;7.63;;;8.30;99.90;;;;;;5053459;28;20499;-66
2021/10/17 04:59:15;;;;;;;10.63;8.60;;;8.40;99.90;;;;;;5054484;28;20503;-66
2021/10/17 05:01:41;;;;;;;10.60;7.93;;;8.50;99.90;;;;;;5053154;28;20415;-67
2021/10/17 05:04:07;;;;;;;10.40;8.37;;;8.50;99.90;;;;;;5054251;28;20792;-66
2021/10/17 05:06:32;;;;;;;12.43;8.23;;;8.60;99.90;;;;;;5053857;28;20257;-71
2021/10/17 05:08:58;;;;;;;8.00;7.30;;;8.60;99.90;;;;;;5053297;28;20212;-67
2021/10/17 05:11:25;;;;;;;9.00;8.10;;;8.60;99.90;;;;;;5053973;28;20174;-66
2021/10/17 05:13:51;;;;;;;8.93;8.00;;;8.70;99.90;;;;;;5051934;28;20178;-66
2021/10/17 05:16:17;;;;;;;8.30;7.50;;;8.70;99.90;;;;;;5053648;28;20400;-66
2021/10/17 05:18:43;;;;;;;8.07;7.27;;;8.80;99.90;;;;;;5052750;28;20477;-67
2021/10/17 05:21:09;;;;;;;9.07;7.93;;;8.80;99.90;;;;;;5053795;28;20411;-66
2021/10/17 05:23:36;;;;;;;10.23;8.00;;;8.80;99.90;;;;;;5053376;28;20180;-71
2021/10/17 05:26:03;;;;;;;9.60;8.60;;;8.80;99.90;;;;;;5053141;28;20540;-66
2021/10/17 05:28:32;;;;;;;9.43;8.47;;;8.90;99.90;;;;;;5053638;28;20420;-66
2021/10/17 05:31:03;;;;;;;8.70;7.80;;;8.90;99.90;;;;;;5051389;28;20515;-66
2021/10/17 05:33:30;;;;;;;9.17;8.10;;;9.00;99.90;;;;;;5053684;28;20404;-66
2021/10/17 05:35:56;;;;;;;9.67;7.70;;;8.90;99.90;;;;;;5052665;28;20397;-66
2021/10/17 05:38:22;;;;;;;8.83;7.63;;;9.00;99.90;;;;;;5053445;28;20440;-67
2021/10/17 05:40:48;;;;;;;9.43;8.10;;;9.00;99.90;;;;;;5052275;28;20452;-66
2021/10/17 05:43:14;;;;;;;9.40;7.97;;;9.10;99.90;;;;;;5053393;28;20165;-66
2021/10/17 05:45:39;;;;;;;9.60;7.93;;;9.00;99.90;;;;;;5051936;28;20490;-67
2021/10/17 05:48:05;;;;;;;10.67;7.57;;;9.00;99.90;;;;;;5053267;28;20181;-66
2021/10/17 05:50:31;;;;;;;10.40;7.93;;;8.90;99.90;;;;;;5052926;28;20420;-66
2021/10/17 05:52:57;;;;;;;9.80;8.80;;;8.70;99.90;;;;;;5052488;28;20184;-66
2021/10/17 05:55:22;;;;;;;10.07;8.73;;;8.70;99.90;;;;;;5053162;28;20184;-66
2021/10/17 05:57:48;;;;;;;12.37;8.57;;;8.80;99.90;;;;;;5052078;28;20640;-66
2021/10/17 06:00:14;;;;;;;8.87;7.87;;;8.80;99.90;;;;;;5052444;28;20661;-66
2021/10/17 06:02:41;;;;;;;9.50;7.90;;;8.90;99.90;;;;;;5052083;28;20209;-68
2021/10/17 06:05:08;;;;;;;17.00;10.77;;;9.00;99.90;;;;;;5052948;28;20412;-66
2021/10/17 06:07:36;;;;;;;9.30;7.80;;;9.00;99.90;;;;;;5052650;28;20857;-67
2021/10/17 06:10:05;;;;;;;9.10;7.97;;;9.00;99.90;;;;;;5032427;28;20475;-66
2021/10/17 06:12:32;;;;;;;11.77;8.80;;;9.10;99.90;;;;;;5033029;28;20413;-66
2021/10/17 06:14:58;;;;;;;9.87;8.90;;;9.10;99.90;;;;;;5033286;28;21062;-66
2021/10/17 06:17:23;;;;;;;9.70;8.90;;;9.20;99.90;;;;;;5052814;28;20412;-66
2021/10/17 06:19:49;;;;;;;9.03;8.13;;;9.20;99.90;;;;;;5050641;28;20184;-67
2021/10/17 06:22:15;;;;;;;9.20;8.30;;;9.20;99.90;;;;;;5052503;28;20174;-66
2021/10/17 06:24:40;;;;;;;9.97;9.00;;;9.20;99.90;;;;;;5052009;28;20205;-70
2021/10/17 06:27:06;;;;;;;9.50;8.50;;;9.30;99.90;;;;;;5051898;28;20201;-67
2021/10/17 06:29:32;;;;;;;8.20;7.40;;;9.30;99.90;;;;;;5052059;28;20205;-66
2021/10/17 06:31:57;;;;;;;9.50;8.33;;;9.30;99.90;;;;;;5050601;28;20499;-66
2021/10/17 06:34:23;;;;;;;9.43;8.40;;;9.30;99.90;;;;;;5051807;28;20209;-66
2021/10/17 06:36:49;;;;;;;8.77;7.97;;;9.30;99.90;;;;;;5050913;28;20185;-68
2021/10/17 06:39:14;;;;;;;9.37;8.47;;;9.40;99.90;;;;;;5050806;28;20235;-68
2021/10/17 06:41:40;;;;;;;11.23;10.10;;;9.40;99.90;;;;;;5051241;28;20216;-72
2021/10/17 06:44:06;;;;;;;11.13;10.13;;;9.40;99.90;;;;;;5051684;28;20229;-68
2021/10/17 06:46:32;;;;;;;11.90;9.07;;;9.40;99.90;;;;;;5052226;28;20449;-68
2021/10/17 06:48:59;;;;;;;10.87;9.00;;;9.40;99.90;;;;;;5051322;28;20189;-68
2021/10/17 06:51:24;;;;;;;11.90;8.67;;;9.50;99.90;;;;;;5050620;28;20420;-69
2021/10/17 06:53:50;;;;;;;9.30;8.40;;;9.60;99.90;;;;;;5050445;28;20257;-68
2021/10/17 06:56:16;;;;;;;9.87;8.83;;;9.60;99.90;;;;;;5051471;28;20278;-68
2021/10/17 06:58:41;;;;;;;10.40;9.07;;;9.70;99.90;;;;;;5049700;28;20235;-71
2021/10/17 07:01:07;;;;;;;9.47;8.57;;;9.70;99.90;;;;;;5050267;28;20674;-69
2021/10/17 07:03:33;;;;;;;9.03;7.37;;;9.80;99.90;;;;;;5049088;28;20178;-68
2021/10/17 07:05:59;;;;;;;9.87;7.90;;;9.80;99.90;;;;;;5049784;28;20241;-69
2021/10/17 07:08:25;;;;;;;8.43;7.60;;;9.80;99.90;;;;;;5052626;28;20443;-68
2021/10/17 07:10:51;;;;;;;12.13;7.93;;;9.80;99.90;;;;;;5049964;28;20182;-68
2021/10/17 07:13:16;;;;;;;9.40;7.43;;;9.90;99.90;;;;;;5049525;28;20631;-68
2021/10/17 07:15:42;;;;;;;12.77;9.20;;;9.90;99.90;;;;;;5049650;28;20420;-71
2021/10/17 07:18:08;;;;;;;9.10;8.20;;;9.90;99.90;;;;;;5049573;28;20178;-68
2021/10/17 07:20:34;;;;;;;8.40;7.60;;;9.90;99.90;;;;;;5050296;28;20182;-68
2021/10/17 07:22:59;;;;;;;9.47;8.57;;;9.90;99.90;;;;;;5050701;28;20221;-68
2021/10/17 07:25:25;;;;;;;9.40;8.57;;;9.90;99.90;;;;;;5051625;28;20176;-68
2021/10/17 07:27:54;;;;;;;9.77;8.83;;;10.00;99.90;;;;;;5050342;28;20183;-67
2021/10/17 07:30:20;;;;;;;10.10;9.07;;;10.00;99.90;;;;;;5052343;28;20647;-68
2021/10/17 07:32:46;;;;;;;8.97;8.17;;;10.00;99.90;;;;;;5048639;28;20917;-68
2021/10/17 07:35:12;;;;;;;10.90;8.20;;;10.10;99.90;;;;;;5051663;28;20409;-67
2021/10/17 07:37:38;;;;;;;8.80;7.97;;;10.10;99.90;;;;;;5051485;28;20421;-68
2021/10/17 07:40:07;;;;;;;11.03;9.80;;;10.20;99.90;;;;;;5053736;28;21208;-69
2021/10/17 07:42:33;;;;;;;9.93;8.93;;;10.10;99.90;;;;;;5055420;28;20163;-68
2021/10/17 07:44:59;;;;;;;10.27;9.00;;;10.20;99.90;;;;;;5054545;28;20468;-69
2021/10/17 07:47:25;;;;;;;9.60;8.77;;;10.20;99.90;;;;;;5053817;28;20466;-69
2021/10/17 07:49:52;;;;;;;12.07;8.27;;;10.20;99.90;;;;;;5053983;28;20193;-68
2021/10/17 07:52:18;;;;;;;10.53;9.23;;;10.20;99.90;;;;;;5053188;28;20767;-68
2021/10/17 07:54:44;;;;;;;9.30;8.40;;;10.30;99.90;;;;;;5054668;28;20408;-75
2021/10/17 07:57:11;;;;;;;9.73;8.73;;;10.40;99.90;;;;;;5054936;28;20454;-69
2021/10/17 07:59:37;;;;;;;9.67;8.70;;;10.70;99.90;;;;;;5044144;28;20209;-69
2021/10/17 08:02:03;;;;;;;10.00;9.00;;;10.80;99.90;;;;;;5054150;28;20462;-70
2021/10/17 08:04:28;;;;;;;11.70;9.10;;;11.10;99.90;;;;;;5055272;28;20173;-69
2021/10/17 08:06:54;;;;;;;273.10;188.57;;;11.20;99.90;;;;;;5053723;28;20455;-69
2021/10/17 08:09:20;;;;;;;418.43;262.33;;;11.40;99.90;;;;;;5053962;28;20246;-69
2021/10/17 08:11:45;;;;;;;57.30;40.43;;;11.60;99.90;;;;;;5053090;28;20173;-77
2021/10/17 08:14:11;;;;;;;13.10;11.23;;;11.90;99.90;;;;;;5055101;28;20207;-69
2021/10/17 08:16:37;;;;;;;11.80;8.90;;;12.10;99.90;;;;;;5055337;28;20272;-69
2021/10/17 08:19:04;;;;;;;10.23;9.20;;;12.20;99.90;;;;;;5054430;28;20430;-69
2021/10/17 08:21:30;;;;;;;10.47;8.10;;;12.40;99.30;;;;;;5055070;28;20421;-69
2021/10/17 08:23:57;;;;;;;11.00;9.90;;;12.50;98.50;;;;;;5053290;28;20455;-69
2021/10/17 08:26:22;;;;;;;11.57;10.37;;;12.70;98.20;;;;;;5054863;28;21056;-69
2021/10/17 08:28:48;;;;;;;11.40;10.20;;;12.80;97.80;;;;;;5053976;28;20424;-70
2021/10/17 08:31:14;;;;;;;9.80;8.80;;;13.00;97.60;;;;;;5054792;28;20186;-70
2021/10/17 08:33:40;;;;;;;10.80;9.77;;;13.10;97.20;;;;;;5054544;28;20416;-69
2021/10/17 08:36:06;;;;;;;9.97;8.73;;;13.20;97.70;;;;;;5052760;28;20190;-69
2021/10/17 08:38:31;;;;;;;8.87;7.90;;;13.30;97.30;;;;;;5054923;28;20417;-69
2021/10/17 08:40:59;;;;;;;9.77;8.87;;;13.30;96.80;;;;;;5052640;28;20733;-69
2021/10/17 08:43:25;;;;;;;9.13;8.20;;;13.40;96.50;;;;;;5054233;28;20185;-70
2021/10/17 08:45:50;;;;;;;10.73;9.77;;;13.50;96.20;;;;;;5053709;28;20475;-70
2021/10/17 08:48:17;;;;;;;10.60;9.50;;;13.50;96.20;;;;;;5054255;28;20187;-70
2021/10/17 08:50:44;;;;;;;10.90;8.93;;;13.50;96.30;;;;;;5053745;28;20215;-70
2021/10/17 08:53:10;;;;;;;9.97;8.93;;;13.50;96.20;;;;;;5053996;28;20419;-69
2021/10/17 08:55:36;;;;;;;9.63;8.73;;;13.60;96.30;;;;;;5054559;28;20431;-69
2021/10/17 08:58:02;;;;;;;8.80;8.00;;;13.60;96.70;;;;;;5052638;28;20419;-69
2021/10/17 09:00:37;;;;;;;10.10;9.03;;;13.70;96.30;;;;;;5054267;28;20180;-69
2021/10/17 09:03:03;;;;;;;10.83;9.07;;;13.80;96.30;;;;;;5052514;28;20183;-68
2021/10/17 09:05:43;;;;;;;166.20;110.53;;;13.90;96.10;;;;;;5054301;28;20427;-68
2021/10/17 09:08:10;;;;;;;220.20;143.27;;;13.80;95.80;;;;;;5052834;28;20391;-69
2021/10/17 09:10:37;;;;;;;25.50;20.80;;;13.80;95.70;;;;;;5049602;28;20423;-68
2021/10/17 09:13:08;;;;;;;10.37;9.27;;;13.80;95.60;;;;;;5052499;28;20483;-68
2021/10/17 09:15:34;;;;;;;9.97;8.90;;;13.80;95.40;;;;;;5053670;28;20458;-68
2021/10/17 09:18:06;;;;;;;10.03;8.53;;;13.70;95.30;;;;;;5055826;28;20454;-68
2021/10/17 09:20:33;;;;;;;9.97;8.63;;;13.50;95.60;;;;;;5061442;28;20439;-68
2021/10/17 09:23:04;;;;;;;9.30;8.40;;;13.40;96.00;;;;;;5057538;28;20913;-68
2021/10/17 09:25:36;;;;;;;9.17;8.23;;;13.40;96.60;;;;;;5052143;28;20430;-69
2021/10/17 09:28:24;;;;;;;10.10;8.60;;;13.20;96.80;;;;;;5051916;28;20510;-68
2021/10/17 09:31:03;;;;;;;10.80;8.67;;;13.10;97.20;;;;;;5052835;28;20408;-74
2021/10/17 09:33:29;;;;;;;10.30;8.90;;;13.00;97.50;;;;;;5053884;28;20407;-68
2021/10/17 09:35:55;;;;;;;8.90;8.00;;;12.80;97.40;;;;;;5052748;28;20407;-69
2021/10/17 09:38:33;;;;;;;9.70;8.63;;;12.80;97.50;;;;;;5053156;28;20424;-68
2021/10/17 09:41:24;;;;;;;9.50;8.63;;;12.70;97.70;;;;;;5052805;28;20400;-68
2021/10/17 09:43:57;;;;;;;10.13;9.13;;;12.60;98.30;;;;;;5051415;28;20429;-75
2021/10/17 09:46:24;;;;;;;165.17;89.80;;;12.60;98.90;;;;;;5053324;28;20807;-68
2021/10/17 09:48:50;;;;;;;70.27;43.97;;;12.60;99.40;;;;;;5052622;28;20434;-76
2021/10/17 09:51:24;;;;;;;50.77;32.50;;;12.60;99.90;;;;;;5052406;28;20939;-68
2021/10/17 09:53:54;;;;;;;11.73;10.53;;;12.60;99.90;;;;;;5052870;28;20768;-76
2021/10/17 09:56:35;;;;;;;10.63;9.57;;;12.60;99.70;;;;;;5052592;28;20433;-68
2021/10/17 09:59:13;;;;;;;10.13;9.13;;;12.60;99.50;;;;;;5052164;28;20488;-68
2021/10/17 10:01:41;;;;;;;11.37;10.00;;;12.60;99.30;;;;;;5052690;28;20413;-68
2021/10/17 10:04:11;;;;;;;10.40;9.10;;;12.60;99.20;;;;;;5051521;28;20456;-69
2021/10/17 10:06:37;;;;;;;9.57;8.57;;;12.60;99.10;;;;;;5052593;28;20485;-69
2021/10/17 10:09:09;;;;;;;9.83;8.90;;;12.60;99.30;;;;;;5052307;28;20417;-68
2021/10/17 10:11:36;;;;;;;10.30;9.37;;;12.60;99.70;;;;;;5053032;28;20397;-68
2021/10/17 10:14:05;;;;;;;10.50;9.50;;;12.60;99.90;;;;;;5051911;28;20433;-68
2021/10/17 10:16:31;;;;;;;10.17;9.20;;;12.70;99.90;;;;;;5052839;28;20404;-69
2021/10/17 10:19:00;;;;;;;15.83;10.23;;;12.80;99.90;;;;;;5051958;28;20413;-68
2021/10/17 10:21:26;;;;;;;11.00;9.73;;;12.90;99.90;;;;;;5052099;28;20927;-68
2021/10/17 10:23:58;;;;;;;11.13;9.40;;;12.90;99.90;;;;;;5052336;28;20408;-76
2021/10/17 10:26:26;;;;;;;13.20;10.67;;;13.00;99.90;;;;;;5052305;28;20942;-68
2021/10/17 10:28:53;;;;;;;11.40;10.20;;;13.10;99.90;;;;;;5052282;28;20752;-77
2021/10/17 10:31:40;;;;;;;11.30;10.10;;;13.20;99.90;;;;;;5052552;28;20406;-68
2021/10/17 10:34:07;;;;;;;11.87;10.60;;;13.20;99.90;;;;;;5050848;28;20414;-68
2021/10/17 10:36:45;;;;;;;13.20;9.93;;;13.30;99.90;;;;;;5051087;28;20415;-69
2021/10/17 10:39:13;;;;;;;12.10;10.83;;;13.40;99.90;;;;;;5050500;28;21291;-69
2021/10/17 10:41:49;;;;;;;13.17;10.47;;;13.50;99.90;;;;;;5051937;28;20464;-69
2021/10/17 10:44:18;;;;;;;11.70;10.53;;;13.50;99.90;;;;;;5050628;28;20473;-68
2021/10/17 10:46:44;;;;;;;12.43;10.80;;;13.60;99.90;;;;;;5052147;28;20619;-68
2021/10/17 10:49:11;;;;;;;11.87;10.77;;;13.60;99.50;;;;;;5051022;28;20469;-69
2021/10/17 10:51:46;;;;;;;12.30;11.10;;;13.70;99.80;;;;;;5051027;28;20431;-68
2021/10/17 10:54:23;;;;;;;14.40;11.27;;;13.80;99.90;;;;;;5051596;28;20531;-68
2021/10/17 10:56:52;;;;;;;11.73;10.73;;;13.80;99.90;;;;;;5053886;28;20432;-68
2021/10/17 10:59:21;;;;;;;11.50;10.50;;;13.90;99.90;;;;;;5049064;28;20426;-70
2021/10/17 11:01:53;;;;;;;12.17;10.97;;;14.00;99.90;;;;;;5050760;28;20938;-69
2021/10/17 11:04:37;;;;;;;12.03;10.77;;;14.00;99.90;;;;;;5050556;28;20423;-69
2021/10/17 11:07:36;;;;;;;11.90;10.80;;;14.10;99.90;;;;;;5050828;28;20456;-68
2021/10/17 11:10:25;;;;;;;11.63;10.00;;;14.20;99.90;;;;;;5050531;28;20435;-68
2021/10/17 11:12:59;;;;;;;12.17;10.93;;;14.30;99.90;;;;;;5051564;28;20421;-67
2021/10/17 11:15:28;;;;;;;10.73;9.73;;;14.40;98.70;;;;;;5055366;28;20423;-68
2021/10/17 11:17:55;;;;;;;25.70;17.80;;;14.50;98.30;;;;;;5055563;28;20517;-74
2021/10/17 11:20:27;;;;;;;34.07;24.93;;;14.50;98.00;;;;;;5055196;28;20424;-67
2021/10/17 11:22:57;;;;;;;15.73;13.13;;;14.60;98.20;;;;;;5056064;28;20482;-74
2021/10/17 11:25:25;;;;;;;10.83;9.53;;;14.70;98.30;;;;;;5056202;28;20761;-67
2021/10/17 11:27:51;;;;;;;9.97;8.97;;;14.80;98.60;;;;;;5055930;28;20449;-67
2021/10/17 11:30:33;;;;;;;11.30;10.13;;;14.90;98.90;;;;;;5053884;28;20961;-67
2021/10/17 11:33:01;;;;;;;9.90;8.90;;;15.00;97.60;;;;;;5054622;28;20413;-68
2021/10/17 11:35:37;;;;;;;10.30;8.90;;;15.10;97.60;;;;;;5054707;28;20434;-68
2021/10/17 11:38:05;;;;;;;11.90;9.03;;;15.10;97.20;;;;;;5055156;28;20396;-68
2021/10/17 11:40:33;;;;;;;9.60;8.77;;;15.20;97.00;;;;;;5055746;28;20405;-67
2021/10/17 11:43:02;;;;;;;10.00;8.90;;;15.20;97.60;;;;;;5054878;28;20407;-68
2021/10/17 11:45:41;;;;;;;11.00;8.80;;;15.30;97.60;;;;;;5054784;28;20462;-67
2021/10/17 11:48:11;;;;;;;10.67;9.60;;;15.30;97.70;;;;;;5042985;28;20945;-67
2021/10/17 11:50:47;;;;;;;10.20;9.20;;;15.30;97.50;;;;;;5055275;28;20922;-67
2021/10/17 11:53:15;;;;;;;9.93;8.93;;;15.30;97.50;;;;;;5054782;28;20402;-67
2021/10/17 11:55:54;;;;;;;10.50;9.20;;;15.30;97.10;;;;;;5054317;28;20423;-67
2021/10/17 11:58:26;;;;;;;9.40;8.50;;;15.30;96.80;;;;;;5035150;28;20408;-68
2021/10/17 12:01:16;;;;;;;10.87;9.03;;;15.40;97.00;;;;;;5044929;28;20423;-67
2021/10/17 12:03:48;;;;;;;313.63;213.47;;;15.40;97.20;;;;;;5048470;28;20442;-68
2021/10/17 12:06:16;;;;;;;151.00;101.90;;;15.40;97.10;;;;;;5054110;28;21000;-68
2021/10/17 12:08:49;;;;;;;24.27;18.60;;;15.40;97.00;;;;;;5054830;28;20419;-67
2021/10/17 12:11:15;;;;;;;18.90;14.70;;;15.50;95.20;;;;;;5053107;28;20743;-67
2021/10/17 12:13:42;;;;;;;11.40;9.10;;;15.40;94.20;;;;;;5055006;28;20498;-68
2021/10/17 12:16:10;;;;;;;9.03;8.13;;;15.50;96.30;;;;;;5053915;28;20422;-68
2021/10/17 12:18:42;;;;;;;9.37;7.37;;;15.50;95.10;;;;;;5054947;28;20416;-71
2021/10/17 12:21:09;;;;;;;9.20;7.27;;;15.60;94.60;;;;;;5054406;28;20422;-71
2021/10/17 12:23:36;;;;;;;113.60;78.43;;;15.60;96.30;;;;;;5055194;28;20415;-71
2021/10/17 12:26:01;;;;;;;29.37;21.43;;;15.70;96.80;;;;;;5052846;28;20447;-71
2021/10/17 12:28:27;;;;;;;62.50;41.27;;;15.80;94.70;;;;;;5053360;28;20438;-71
2021/10/17 12:30:55;;;;;;;54.17;36.87;;;16.00;97.20;;;;;;5054475;28;20208;-71
2021/10/17 12:33:35;;;;;;;12.10;8.30;;;16.20;94.20;;;;;;5052819;28;20204;-71
2021/10/17 12:36:02;;;;;;;12.23;10.63;;;15.90;92.60;;;;;;5054092;28;20411;-71
2021/10/17 12:38:34;;;;;;;6.83;6.00;;;15.80;94.00;;;;;;5054625;28;20890;-71
2021/10/17 12:41:04;;;;;;;6.17;5.63;;;15.80;92.90;;;;;;5054128;28;20406;-71
2021/10/17 12:43:37;;;;;;;8.10;6.40;;;15.70;92.90;;;;;;5054417;28;20810;-71
2021/10/17 12:46:18;;;;;;;11.57;8.27;;;15.50;92.30;;;;;;5053921;28;20487;-71